FDB3YK OMDB-OTHH
Flight info
| Callsign | FDB3YK |
|---|---|
| Flight time | N/A |
| Altitude | 22000 |
| Route | NABIX P699 OXARI M430 TOSNA |
| Aircraft | B738/M-SDE2E3FGHIRWXY/LB1 |
Departure
| Time | 2026-05-04 14:18 |
|---|---|
| Airport | Dubai International Airport (OMDB) |
Arrival
| Time | N/A |
|---|---|
| Airport | Hamad International Airport (OTHH) |
| Time | Latitude | Longitude | Altitude | Speed | Heading |
|---|---|---|---|---|---|
| 2026-05-04 13:45 | 25.26681 | 55.35370 | 25 ft | 0 kts | 28° |
| 2026-05-04 14:05 | 25.26652 | 55.35352 | 21 ft | 4 kts | 32° |
| 2026-05-04 14:05 | 25.26629 | 55.35337 | 23 ft | 4 kts | 41° |
| 2026-05-04 14:05 | 25.26617 | 55.35315 | 23 ft | 4 kts | 94° |
| 2026-05-04 14:06 | 25.26623 | 55.35291 | 25 ft | 1 kts | 120° |
| 2026-05-04 14:06 | 25.26625 | 55.35287 | 24 ft | 0 kts | 120° |
| 2026-05-04 14:10 | 25.26619 | 55.35301 | 22 ft | 8 kts | 118° |
| 2026-05-04 14:10 | 25.26574 | 55.35380 | 24 ft | 13 kts | 122° |
| 2026-05-04 14:10 | 25.26540 | 55.35443 | 21 ft | 0 kts | 120° |
| 2026-05-04 14:11 | 25.26517 | 55.35484 | 23 ft | 15 kts | 122° |
| 2026-05-04 14:11 | 25.26352 | 55.35782 | 21 ft | 23 kts | 122° |
| 2026-05-04 14:11 | 25.26271 | 55.35931 | 23 ft | 22 kts | 121° |
| 2026-05-04 14:12 | 25.26190 | 55.36075 | 21 ft | 22 kts | 122° |
| 2026-05-04 14:12 | 25.26111 | 55.36215 | 21 ft | 22 kts | 124° |
| 2026-05-04 14:12 | 25.26015 | 55.36331 | 21 ft | 7 kts | 199° |
| 2026-05-04 14:13 | 25.25953 | 55.36335 | 21 ft | 13 kts | 141° |
| 2026-05-04 14:13 | 25.25892 | 55.36438 | 21 ft | 17 kts | 121° |
| 2026-05-04 14:13 | 25.25831 | 55.36546 | 22 ft | 16 kts | 122° |
| 2026-05-04 14:13 | 25.25773 | 55.36650 | 21 ft | 16 kts | 121° |
| 2026-05-04 14:14 | 25.25715 | 55.36756 | 21 ft | 19 kts | 121° |
| 2026-05-04 14:14 | 25.25511 | 55.37108 | 23 ft | 30 kts | 121° |
| 2026-05-04 14:14 | 25.25407 | 55.37305 | 22 ft | 27 kts | 120° |
| 2026-05-04 14:15 | 25.25224 | 55.37641 | 21 ft | 24 kts | 122° |
| 2026-05-04 14:15 | 25.25062 | 55.37939 | 23 ft | 22 kts | 121° |
| 2026-05-04 14:16 | 25.24881 | 55.37980 | 21 ft | 15 kts | 211° |
| 2026-05-04 14:16 | 25.24855 | 55.37930 | 21 ft | 0 kts | 301° |
| 2026-05-04 14:17 | 25.25026 | 55.37620 | 21 ft | 81 kts | 302° |
| 2026-05-04 14:18 | 25.25434 | 55.36886 | 23 ft | 140 kts | 302° |
| 2026-05-04 14:18 | 25.26650 | 55.34666 | 844 ft | 180 kts | 298° |
| 2026-05-04 14:19 | 25.27946 | 55.32245 | 2224 ft | 187 kts | 299° |
| 2026-05-04 14:19 | 25.28496 | 55.30933 | 2875 ft | 191 kts | 295° |
| 2026-05-04 14:19 | 25.29221 | 55.29592 | 3125 ft | 215 kts | 302° |
| 2026-05-04 14:19 | 25.29569 | 55.27914 | 3280 ft | 241 kts | 264° |
| 2026-05-04 14:20 | 25.29236 | 55.26061 | 3679 ft | 251 kts | 261° |
| 2026-05-04 14:20 | 25.28893 | 55.24115 | 4015 ft | 269 kts | 262° |
| 2026-05-04 14:20 | 25.28563 | 55.22033 | 4524 ft | 279 kts | 263° |
| 2026-05-04 14:21 | 25.27980 | 55.17770 | 5914 ft | 282 kts | 264° |
| 2026-05-04 14:21 | 25.27717 | 55.15615 | 6599 ft | 284 kts | 265° |
| 2026-05-04 14:21 | 25.27467 | 55.13446 | 7303 ft | 284 kts | 265° |
| 2026-05-04 14:21 | 25.27225 | 55.11268 | 7978 ft | 286 kts | 266° |
| 2026-05-04 14:22 | 25.26988 | 55.09078 | 8678 ft | 288 kts | 266° |
| 2026-05-04 14:22 | 25.26753 | 55.06871 | 9389 ft | 289 kts | 266° |
| 2026-05-04 14:22 | 25.26524 | 55.04689 | 10025 ft | 292 kts | 266° |
| 2026-05-04 14:22 | 25.26285 | 55.02380 | 10198 ft | 313 kts | 266° |
| 2026-05-04 14:23 | 25.25762 | 54.97292 | 10491 ft | 350 kts | 266° |
| 2026-05-04 14:23 | 25.25480 | 54.94580 | 10834 ft | 360 kts | 266° |
| 2026-05-04 14:23 | 25.25192 | 54.91824 | 11371 ft | 362 kts | 266° |
| 2026-05-04 14:24 | 25.24901 | 54.89054 | 11993 ft | 363 kts | 266° |
| 2026-05-04 14:24 | 25.24613 | 54.86305 | 12534 ft | 367 kts | 265° |
| 2026-05-04 14:24 | 25.24397 | 54.83483 | 13086 ft | 369 kts | 271° |
| 2026-05-04 14:24 | 25.24408 | 54.80640 | 13645 ft | 372 kts | 273° |
| 2026-05-04 14:25 | 25.24483 | 54.77778 | 14166 ft | 374 kts | 274° |
| 2026-05-04 14:25 | 25.24656 | 54.71996 | 15326 ft | 377 kts | 273° |
| 2026-05-04 14:25 | 25.24732 | 54.69093 | 15890 ft | 380 kts | 273° |
| 2026-05-04 14:26 | 25.24799 | 54.66167 | 16450 ft | 382 kts | 272° |